Time;durP1;ratioP1;P1;durP2;ratioP2;P2;SDS_P1;SDS_P2;PMS_P1;PMS_P2;Temp;Humidity;BMP_temperature;BMP_pressure;BME280_temperature;BME280_humidity;BME280_pressure;Samples;Min_cycle;Max_cycle;Signal;HPM_P1;HPM_P2
2023/08/31 00:01:59;;;;;;;0.70;0.70;;;;;;;23.95;100.00;99375.25;5052299;28;20650;-68
2023/08/31 00:04:27;;;;;;;0.85;0.85;;;;;;;23.98;100.00;99391.00;5052420;28;20215;-67
2023/08/31 00:06:54;;;;;;;0.80;0.80;;;;;;;23.78;100.00;99377.03;5052365;28;20733;-68
2023/08/31 00:09:21;;;;;;;0.95;0.95;;;;;;;23.82;100.00;99391.84;5052205;28;20200;-68
2023/08/31 00:11:47;;;;;;;0.60;0.60;;;;;;;23.76;100.00;99393.00;5052209;28;20227;-68
2023/08/31 00:14:14;;;;;;;1.10;1.10;;;;;;;23.69;100.00;99397.75;5052215;28;20632;-68
2023/08/31 00:16:41;;;;;;;0.95;0.95;;;;;;;23.59;100.00;99391.19;5052483;28;20203;-68
2023/08/31 00:19:08;;;;;;;0.70;0.70;;;;;;;23.59;100.00;99392.97;5052348;28;20196;-69
2023/08/31 00:21:36;;;;;;;1.33;1.23;;;;;;;23.69;100.00;99402.16;5052213;28;20200;-69
2023/08/31 00:24:03;;;;;;;2.25;2.15;;;;;;;23.58;100.00;99404.50;5051751;28;20195;-69
2023/08/31 00:26:30;;;;;;;0.80;0.80;;;;;;;23.56;100.00;99419.59;5051790;28;20282;-68
2023/08/31 00:28:58;;;;;;;0.70;0.70;;;;;;;23.46;100.00;99403.31;5052350;28;20207;-68
2023/08/31 00:31:25;;;;;;;0.90;0.90;;;;;;;23.53;100.00;99412.66;5016754;28;20265;-68
2023/08/31 00:33:52;;;;;;;0.85;0.85;;;;;;;23.53;100.00;99406.50;5051987;28;20234;-70
2023/08/31 00:36:18;;;;;;;0.80;0.80;;;;;;;23.52;100.00;99413.59;5051870;28;20203;-68
2023/08/31 00:38:47;;;;;;;1.23;1.23;;;;;;;23.53;100.00;99412.66;5051783;28;20238;-69
2023/08/31 00:41:14;;;;;;;2.83;1.00;;;;;;;23.51;100.00;99411.00;5051929;28;20200;-69
2023/08/31 00:43:41;;;;;;;2.45;1.23;;;;;;;23.55;100.00;99412.56;5051873;28;20203;-69
2023/08/31 00:46:08;;;;;;;1.02;1.02;;;;;;;23.55;100.00;99415.22;5051707;28;20206;-68
2023/08/31 00:48:38;;;;;;;0.82;0.82;;;;;;;23.16;100.00;99349.19;5051731;28;20207;-68
2023/08/31 00:51:06;;;;;;;0.80;0.80;;;;;;;23.47;100.00;99422.69;5051615;28;20686;-68
2023/08/31 00:53:33;;;;;;;1.02;0.95;;;;;;;23.46;100.00;99426.25;5050719;28;20695;-68
2023/08/31 00:56:02;;;;;;;0.75;0.75;;;;;;;23.52;100.00;99423.31;5051548;28;20214;-69
2023/08/31 00:58:30;;;;;;;1.17;1.17;;;;;;;23.52;100.00;99429.47;5051196;28;20203;-68
2023/08/31 01:01:05;;;;;;;0.93;0.93;;;;;;;23.50;100.00;99411.97;5051504;28;20192;-68
2023/08/31 01:03:41;;;;;;;0.75;0.75;;;;;;;23.56;100.00;99428.41;5051839;28;20207;-70
2023/08/31 01:06:15;;;;;;;0.80;0.80;;;;;;;23.57;100.00;99423.97;5051655;28;20214;-67
2023/08/31 01:08:49;;;;;;;1.13;1.13;;;;;;;23.36;100.00;99403.78;5051763;28;20205;-67
2023/08/31 01:11:27;;;;;;;0.80;0.80;;;;;;;23.56;100.00;99427.53;5051734;28;20682;-67
2023/08/31 01:14:02;;;;;;;0.80;0.80;;;;;;;23.57;100.00;99429.25;5051577;28;20199;-67
2023/08/31 01:16:33;;;;;;;0.95;0.95;;;;;;;23.52;100.00;99424.19;5051476;28;20278;-67
2023/08/31 01:19:02;;;;;;;1.55;1.35;;;;;;;23.34;100.00;99422.38;5032559;28;20199;-67
2023/08/31 01:21:35;;;;;;;1.67;1.63;;;;;;;23.36;100.00;99419.66;5051355;28;20211;-68
2023/08/31 01:24:06;;;;;;;0.70;0.70;;;;;;;23.26;100.00;99423.69;5051426;28;20296;-68
2023/08/31 01:26:33;;;;;;;0.90;0.90;;;;;;;23.40;100.00;99437.13;5051530;28;20200;-68
2023/08/31 01:29:00;;;;;;;1.45;1.45;;;;;;;23.41;100.00;99436.16;5051362;28;20675;-68
2023/08/31 01:31:27;;;;;;;1.00;1.00;;;;;;;23.42;100.00;99435.28;5051435;28;20206;-67
2023/08/31 01:34:34;;;;;;;0.68;0.68;;;;;;;23.56;100.00;99433.69;5051236;28;20300;-67
2023/08/31 01:37:09;;;;;;;1.13;1.13;;;;;;;23.53;100.00;99446.22;5036415;28;20286;-68
2023/08/31 01:39:43;;;;;;;0.88;0.88;;;;;;;23.56;100.00;99438.13;5051100;28;20207;-68
2023/08/31 01:42:14;;;;;;;1.00;1.00;;;;;;;23.57;100.00;99445.13;5050919;28;20200;-68
2023/08/31 01:44:42;;;;;;;1.65;1.55;;;;;;;23.51;100.00;99437.47;5050993;28;20282;-67
2023/08/31 01:47:11;;;;;;;0.90;0.90;;;;;;;23.44;100.00;99436.03;5050963;28;20187;-68
2023/08/31 01:49:38;;;;;;;1.05;1.05;;;;;;;23.55;100.00;99450.50;5050876;28;20196;-68
2023/08/31 01:52:06;;;;;;;0.75;0.75;;;;;;;23.55;100.00;99446.97;5050321;28;20783;-67
2023/08/31 01:54:34;;;;;;;0.90;0.90;;;;;;;23.47;100.00;99446.50;5050802;28;20210;-67
2023/08/31 01:57:03;;;;;;;1.15;1.10;;;;;;;23.49;100.00;99440.22;5050671;28;20207;-68
2023/08/31 01:59:29;;;;;;;1.58;1.50;;;;;;;23.42;100.00;99440.56;5050891;28;20231;-68
2023/08/31 02:01:56;;;;;;;0.88;0.88;;;;;;;23.43;100.00;99445.81;5050537;28;20200;-68
2023/08/31 02:04:23;;;;;;;1.00;1.00;;;;;;;23.39;100.00;99451.28;5051037;28;20227;-68
2023/08/31 02:06:50;;;;;;;1.38;1.35;;;;;;;23.39;100.00;99452.13;5032501;28;20265;-68
2023/08/31 02:09:16;;;;;;;1.67;1.58;;;;;;;22.93;100.00;99376.72;5051286;28;20261;-68
2023/08/31 02:11:43;;;;;;;0.70;0.70;;;;;;;23.32;100.00;99434.84;5051103;28;20210;-68
2023/08/31 02:14:11;;;;;;;0.80;0.80;;;;;;;23.37;100.00;99447.81;5051057;28;20257;-68
2023/08/31 02:16:38;;;;;;;0.75;0.75;;;;;;;23.24;100.00;99442.25;5051116;28;20675;-68
2023/08/31 02:19:05;;;;;;;0.98;0.98;;;;;;;23.10;100.00;99444.69;5050587;28;20212;-67
2023/08/31 02:21:32;;;;;;;0.80;0.80;;;;;;;23.14;100.00;99446.28;5012400;28;20660;-67
2023/08/31 02:23:58;;;;;;;0.95;0.95;;;;;;;23.15;100.00;99446.19;5030798;28;20208;-68
2023/08/31 02:26:25;;;;;;;0.95;0.95;;;;;;;23.20;100.00;99462.72;5031026;28;20209;-68
2023/08/31 02:28:52;;;;;;;1.10;1.00;;;;;;;23.06;100.00;99443.97;5031156;28;20208;-68
2023/08/31 02:31:20;;;;;;;0.80;0.80;;;;;;;23.15;100.00;99469.97;5034176;28;20215;-68
2023/08/31 02:33:47;;;;;;;1.60;1.60;;;;;;;23.06;100.00;99473.06;5034479;28;20313;-68
2023/08/31 02:36:14;;;;;;;0.70;0.70;;;;;;;23.07;100.00;99460.69;5034502;28;20607;-68
2023/08/31 02:38:41;;;;;;;0.80;0.80;;;;;;;22.86;100.00;99440.53;5034497;28;20253;-68
2023/08/31 02:41:08;;;;;;;1.27;1.27;;;;;;;22.95;100.00;99462.13;5034530;28;20266;-68
2023/08/31 02:43:34;;;;;;;0.80;0.80;;;;;;;22.91;100.00;99470.25;5034419;28;20600;-68
2023/08/31 02:46:02;;;;;;;0.80;0.80;;;;;;;22.94;100.00;99462.16;5052982;28;20199;-68
2023/08/31 02:48:30;;;;;;;1.30;1.30;;;;;;;22.93;100.00;99458.69;5054035;28;20206;-68
2023/08/31 02:50:58;;;;;;;0.77;0.77;;;;;;;22.96;100.00;99465.63;5053443;28;20238;-69
2023/08/31 02:53:25;;;;;;;1.65;1.58;;;;;;;22.91;100.00;99465.81;5051800;28;20324;-68
2023/08/31 02:55:51;;;;;;;1.02;1.02;;;;;;;22.87;100.00;99463.38;5053855;28;20214;-68
2023/08/31 02:58:19;;;;;;;1.10;1.10;;;;;;;22.76;100.00;99449.81;5052912;28;20202;-68
2023/08/31 03:00:48;;;;;;;0.77;0.77;;;;;;;22.85;100.00;99458.16;5052880;28;20567;-69
2023/08/31 03:03:15;;;;;;;0.90;0.90;;;;;;;22.86;100.00;99462.53;5053438;28;20631;-68
2023/08/31 03:05:43;;;;;;;0.88;0.88;;;;;;;22.94;100.00;99456.88;5035061;28;20199;-69
2023/08/31 03:08:10;;;;;;;1.02;1.02;;;;;;;22.91;100.00;99449.97;5053128;28;20203;-68
2023/08/31 03:10:37;;;;;;;0.75;0.75;;;;;;;23.20;100.00;99475.94;5053694;28;20195;-68
2023/08/31 03:13:05;;;;;;;0.85;0.85;;;;;;;23.27;100.00;99475.63;5053420;28;20215;-68
2023/08/31 03:15:34;;;;;;;0.70;0.70;;;;;;;23.26;100.00;99472.13;5053372;28;20647;-68
2023/08/31 03:18:01;;;;;;;0.80;0.80;;;;;;;23.19;100.00;99484.78;5053347;28;20660;-68
2023/08/31 03:20:28;;;;;;;0.65;0.65;;;;;;;23.29;100.00;99487.91;5053791;28;20203;-68
2023/08/31 03:22:56;;;;;;;1.73;1.63;;;;;;;23.39;100.00;99483.03;5053030;28;20196;-68
2023/08/31 03:25:24;;;;;;;1.10;1.10;;;;;;;23.42;100.00;99493.50;5053279;28;20199;-68
2023/08/31 03:27:51;;;;;;;0.80;0.80;;;;;;;23.45;100.00;99498.63;5053010;28;20286;-68
2023/08/31 03:30:18;;;;;;;0.90;0.90;;;;;;;23.56;100.00;99496.34;5053194;28;20761;-68
2023/08/31 03:32:44;;;;;;;1.10;1.10;;;;;;;23.58;100.00;99500.63;5053247;28;20231;-69
2023/08/31 03:35:11;;;;;;;2.47;1.10;;;;;;;23.67;100.00;99499.34;5053139;28;20636;-68
2023/08/31 03:37:38;;;;;;;1.30;1.30;;;;;;;23.71;100.00;99503.56;5053280;28;20196;-68
2023/08/31 03:40:07;;;;;;;0.93;0.93;;;;;;;23.63;100.00;99481.88;5052688;28;20210;-68
2023/08/31 03:42:35;;;;;;;1.15;1.15;;;;;;;23.43;100.00;99480.22;5052961;28;20199;-68
2023/08/31 03:45:03;;;;;;;17.73;1.13;;;;;;;23.65;100.00;99503.88;5053129;28;20215;-69
2023/08/31 03:47:30;;;;;;;1.30;1.20;;;;;;;23.61;100.00;99502.28;5053342;28;20229;-69
2023/08/31 03:49:56;;;;;;;1.00;1.00;;;;;;;23.65;100.00;99506.53;5053129;28;20227;-69
2023/08/31 03:52:23;;;;;;;1.10;1.10;;;;;;;23.66;100.00;99517.00;5017789;28;20230;-68
2023/08/31 03:54:52;;;;;;;3.70;2.63;;;;;;;23.65;100.00;99517.09;5052449;28;20269;-68
2023/08/31 03:57:20;;;;;;;0.80;0.80;;;;;;;23.47;100.00;99507.38;5052663;28;20196;-69
2023/08/31 03:59:47;;;;;;;0.70;0.70;;;;;;;23.50;100.00;99523.97;5033676;28;20211;-68
2023/08/31 04:02:14;;;;;;;2.10;1.67;;;;;;;23.48;100.00;99514.38;5052371;28;20199;-69
2023/08/31 04:04:41;;;;;;;1.55;1.45;;;;;;;23.59;100.00;99517.38;5052334;28;20581;-69
2023/08/31 04:07:07;;;;;;;1.42;1.42;;;;;;;23.54;100.00;99514.09;5051674;28;20196;-68
2023/08/31 04:09:34;;;;;;;0.90;0.80;;;;;;;23.55;100.00;99515.78;5052395;28;20203;-68
2023/08/31 04:12:01;;;;;;;1.88;1.77;;;;;;;23.56;100.00;99517.53;5052221;28;20572;-69
2023/08/31 04:14:29;;;;;;;2.42;1.50;;;;;;;23.63;100.00;99511.88;5051751;28;20687;-68
2023/08/31 04:16:56;;;;;;;0.90;0.90;;;;;;;23.66;100.00;99527.59;5051936;28;20203;-67
2023/08/31 04:19:23;;;;;;;4.47;1.25;;;;;;;23.68;100.00;99527.53;5052165;28;20690;-67
2023/08/31 04:21:50;;;;;;;1.30;1.30;;;;;;;23.84;100.00;99533.81;5051759;28;20260;-67
2023/08/31 04:24:17;;;;;;;1.17;1.17;;;;;;;23.93;100.00;99537.81;5051621;28;20195;-67
2023/08/31 04:26:44;;;;;;;1.85;1.75;;;;;;;23.95;100.00;99542.09;5052128;28;20207;-68
2023/08/31 04:29:11;;;;;;;1.65;1.50;;;;;;;23.94;100.00;99543.03;5033149;28;20682;-68
2023/08/31 04:31:39;;;;;;;0.77;0.77;;;;;;;23.86;100.00;99541.69;5051838;28;20675;-68
2023/08/31 04:34:07;;;;;;;1.27;1.27;;;;;;;23.82;100.00;99562.16;5051671;28;20222;-69
2023/08/31 04:36:34;;;;;;;0.65;0.65;;;;;;;23.78;100.00;99565.03;5051965;28;20199;-68
2023/08/31 04:39:00;;;;;;;2.35;2.20;;;;;;;23.59;100.00;99560.59;5051516;28;20687;-68
2023/08/31 04:41:27;;;;;;;0.77;0.77;;;;;;;23.64;100.00;99555.09;5049826;28;20722;-70
2023/08/31 04:43:54;;;;;;;1.77;1.67;;;;;;;23.85;100.00;99569.09;5051051;28;20213;-70
2023/08/31 04:46:21;;;;;;;0.90;0.90;;;;;;;23.90;100.00;99575.88;5051133;28;20202;-70
2023/08/31 04:48:49;;;;;;;0.75;0.75;;;;;;;24.11;100.00;99579.31;5051200;28;20200;-70
2023/08/31 04:51:39;;;;;;;1.05;1.05;;;;;;;24.40;100.00;99577.94;5050896;28;20212;-72
2023/08/31 04:54:07;;;;;;;1.52;1.42;;;;;;;24.30;100.00;99569.56;5009252;28;20284;-71
2023/08/31 04:56:34;;;;;;;0.80;0.80;;;;;;;24.38;100.00;99582.44;4961824;28;20209;-72
2023/08/31 04:59:02;;;;;;;1.52;1.52;;;;;;;24.51;100.00;99586.19;5025605;28;20204;-72
2023/08/31 05:01:29;;;;;;;1.48;1.38;;;;;;;24.51;100.00;99573.78;5018401;28;20274;-72
2023/08/31 05:03:58;;;;;;;1.58;1.58;;;;;;;24.76;100.00;99586.66;5029163;28;20211;-71
2023/08/31 05:06:25;;;;;;;0.90;0.90;;;;;;;24.52;100.00;99579.97;5013419;28;20723;-69
2023/08/31 05:08:52;;;;;;;0.90;0.90;;;;;;;24.54;100.00;99599.31;4954086;28;20205;-73
2023/08/31 05:11:19;;;;;;;2.80;2.03;;;;;;;24.62;100.00;99599.75;4994567;28;20215;-71
2023/08/31 05:13:46;;;;;;;1.67;1.60;;;;;;;24.76;100.00;99594.63;5018110;28;20255;-71
2023/08/31 05:16:12;;;;;;;1.23;1.13;;;;;;;24.70;100.00;99600.25;5021272;28;20201;-68
2023/08/31 05:18:40;;;;;;;2.60;1.10;;;;;;;24.79;100.00;99601.59;5022902;28;20200;-68
2023/08/31 05:21:08;;;;;;;1.30;1.10;;;;;;;24.93;100.00;99586.72;5016849;28;20225;-67
2023/08/31 05:23:35;;;;;;;0.95;0.95;;;;;;;25.07;100.00;99600.13;4997875;28;20237;-67
2023/08/31 05:26:02;;;;;;;1.60;1.50;;;;;;;25.06;100.00;99602.84;5000936;28;20435;-68
2023/08/31 05:28:29;;;;;;;1.90;1.80;;;;;;;24.94;100.00;99596.38;5003453;28;20287;-68
2023/08/31 05:30:58;;;;;;;2.40;1.52;;;;;;;25.14;100.00;99600.66;5025106;28;20203;-68
2023/08/31 05:33:28;;;;;;;0.70;0.70;;;;;;;25.24;100.00;99601.03;5045099;28;20334;-70
2023/08/31 05:35:55;;;;;;;1.73;1.60;;;;;;;25.39;100.00;99598.44;5039533;28;20227;-68
2023/08/31 05:38:24;;;;;;;1.45;1.15;;;;;;;25.56;100.00;99597.56;5052408;28;20222;-69
2023/08/31 05:40:50;;;;;;;1.20;1.20;;;;;;;25.43;100.00;99612.41;5046226;28;20234;-69
2023/08/31 05:43:17;;;;;;;0.60;0.60;;;;;;;25.64;100.00;99609.50;5050295;28;20214;-68
2023/08/31 05:45:46;;;;;;;1.27;1.23;;;;;;;25.80;100.00;99621.91;5050967;28;20237;-68
2023/08/31 05:48:13;;;;;;;2.65;1.98;;;;;;;25.86;100.00;99619.81;5037301;28;20287;-69
2023/08/31 05:50:40;;;;;;;0.90;0.90;;;;;;;25.75;100.00;99622.19;5035789;28;20683;-68
2023/08/31 05:53:07;;;;;;;1.20;1.17;;;;;;;25.61;100.00;99612.28;5049149;28;20241;-69
2023/08/31 05:55:36;;;;;;;1.08;1.08;;;;;;;25.72;100.00;99624.97;5050669;28;20199;-67
2023/08/31 05:58:03;;;;;;;1.95;1.85;;;;;;;25.70;100.00;99616.25;5045097;28;20204;-68
2023/08/31 06:00:29;;;;;;;0.68;0.68;;;;;;;25.84;100.00;99613.69;5036343;28;20740;-69
2023/08/31 06:02:56;;;;;;;0.80;0.80;;;;;;;26.17;100.00;99620.75;5023357;28;20215;-69
2023/08/31 06:05:23;;;;;;;1.77;1.67;;;;;;;26.37;100.00;99618.69;5028037;28;20206;-69
2023/08/31 06:07:50;;;;;;;1.58;1.55;;;;;;;26.32;100.00;99617.25;5030158;28;20196;-69
2023/08/31 06:10:17;;;;;;;1.35;1.35;;;;;;;26.42;100.00;99626.44;5052010;28;20227;-69
2023/08/31 06:12:45;;;;;;;0.98;0.98;;;;;;;26.57;100.00;99636.19;5054369;28;20200;-69
2023/08/31 06:15:12;;;;;;;1.25;1.08;;;;;;;26.68;100.00;99635.56;5051785;28;20230;-70
2023/08/31 06:17:39;;;;;;;2.30;1.20;;;;;;;26.72;100.00;99634.44;5025057;28;20322;-69
2023/08/31 06:20:08;;;;;;;0.93;0.93;;;;;;;26.84;100.00;99650.56;5037817;28;20672;-69
2023/08/31 06:22:35;;;;;;;0.80;0.80;;;;;;;26.87;100.00;99653.06;5041700;28;20253;-69
2023/08/31 06:25:02;;;;;;;1.02;1.02;;;;;;;26.75;100.00;99634.28;5054174;28;20274;-69
2023/08/31 06:27:29;;;;;;;1.85;1.75;;;;;;;27.02;100.00;99651.28;5054463;28;20239;-67
2023/08/31 06:29:57;;;;;;;1.13;1.13;;;;;;;27.32;100.00;99652.13;5054076;28;20218;-67
2023/08/31 06:32:24;;;;;;;0.73;0.73;;;;;;;27.45;100.00;99662.91;5054320;28;20208;-68
2023/08/31 06:34:51;;;;;;;0.70;0.70;;;;;;;27.45;100.00;99668.25;5033985;28;20219;-68
2023/08/31 06:37:17;;;;;;;2.40;1.50;;;;;;;26.93;100.00;99604.78;5047852;28;20644;-69
2023/08/31 06:39:44;;;;;;;1.15;1.15;;;;;;;27.37;100.00;99654.50;5044741;28;20699;-68
2023/08/31 06:42:11;;;;;;;0.80;0.80;;;;;;;27.76;100.00;99677.88;5007044;28;20208;-69
2023/08/31 06:44:38;;;;;;;1.00;1.00;;;;;;;28.05;100.00;99676.91;5047223;28;20204;-68
2023/08/31 06:47:06;;;;;;;3.22;1.70;;;;;;;28.13;100.00;99674.66;5053847;28;20195;-67
2023/08/31 06:49:35;;;;;;;1.15;1.15;;;;;;;27.93;100.00;99670.53;5053825;28;20269;-68
2023/08/31 06:52:02;;;;;;;1.20;1.20;;;;;;;27.39;100.00;99684.56;5053269;28;20224;-68
2023/08/31 06:54:29;;;;;;;1.05;1.05;;;;;;;27.42;100.00;99695.03;5053907;28;20730;-69
2023/08/31 06:56:56;;;;;;;0.65;0.65;;;;;;;27.43;100.00;99694.09;5018431;28;20257;-68
2023/08/31 06:59:23;;;;;;;1.00;1.00;;;;;;;27.47;100.00;99698.28;5053374;28;20207;-67
2023/08/31 07:01:49;;;;;;;0.73;0.73;;;;;;;27.42;100.00;99695.03;5053014;28;20206;-67
2023/08/31 07:04:18;;;;;;;0.90;0.90;;;;;;;27.06;100.00;99704.25;5058192;28;20203;-69
2023/08/31 07:06:44;;;;;;;1.42;1.35;;;;;;;27.13;100.00;99703.91;5073818;28;20275;-68
2023/08/31 07:09:11;;;;;;;1.10;1.10;;;;;;;27.31;100.00;99722.31;5058246;28;20589;-68
2023/08/31 07:11:38;;;;;;;0.93;0.93;;;;;;;27.29;100.00;99713.53;5053442;28;20207;-69
2023/08/31 07:14:05;;;;;;;0.98;0.90;;;;;;;27.21;100.00;99702.50;5050566;28;20223;-67
2023/08/31 07:16:31;;;;;;;0.70;0.70;;;;;;;27.14;100.00;99722.44;5048290;28;20214;-69
2023/08/31 07:18:58;;;;;;;2.20;1.55;;;;;;;27.26;100.00;99727.03;5018099;28;20663;-68
2023/08/31 07:21:26;;;;;;;0.90;0.90;;;;;;;27.10;100.00;99732.41;5034643;28;20260;-68
2023/08/31 07:23:54;;;;;;;2.17;0.90;;;;;;;27.15;100.00;99728.63;5050527;28;20200;-69
2023/08/31 07:26:21;;;;;;;5.65;1.45;;;;;;;27.21;100.00;99733.59;5053032;28;20210;-67
2023/08/31 07:28:48;;;;;;;8.40;1.60;;;;;;;27.33;100.00;99733.72;5052802;28;20203;-67
2023/08/31 07:31:16;;;;;;;0.88;0.88;;;;;;;27.21;100.00;99734.47;5052885;28;20199;-68
2023/08/31 07:33:42;;;;;;;1.38;0.80;;;;;;;27.22;100.00;99737.97;5052787;28;20206;-68
2023/08/31 07:36:09;;;;;;;1.75;0.90;;;;;;;27.65;100.00;99738.97;5053033;28;20203;-68
2023/08/31 07:38:37;;;;;;;1.27;0.80;;;;;;;27.92;100.00;99748.81;5052812;28;20196;-70
2023/08/31 07:41:05;;;;;;;1.38;0.65;;;;;;;27.81;100.00;99745.94;5017679;28;20200;-68
2023/08/31 07:43:31;;;;;;;2.55;0.90;;;;;;;27.70;100.00;99732.41;5052576;28;20654;-69
2023/08/31 07:45:58;;;;;;;0.80;0.80;;;;;;;27.71;100.00;99744.78;5052454;28;20270;-67
2023/08/31 07:48:25;;;;;;;2.05;0.88;;;;;;;27.81;100.00;99758.41;5017511;28;20633;-68
2023/08/31 07:50:52;;;;;;;2.10;0.85;;;;;;;28.04;100.00;99757.84;5040638;28;20200;-68
2023/08/31 07:53:18;;;;;;;3.35;1.13;;;;;;;28.02;100.00;99765.94;5043538;28;20231;-68
2023/08/31 07:55:55;;;;;;;0.90;0.90;;;;;;;27.65;100.00;99745.13;5017991;28;20227;-68
2023/08/31 07:58:22;;;;;;;1.23;0.73;;;;;;;27.64;100.00;99764.75;5052587;28;20289;-69
2023/08/31 08:00:49;;;;;;;1.55;0.65;;;;;;;27.85;100.00;99751.94;5017956;28;20203;-69
2023/08/31 08:03:15;;;;;;;1.33;0.80;;;;;;;27.59;100.00;99721.53;5052460;28;20195;-68
2023/08/31 08:05:42;;;;;;;4.85;1.40;;;;;;;27.73;100.00;99766.00;5017692;28;20269;-69
2023/08/31 08:08:09;;;;;;;1.27;0.80;;;;;;;28.06;97.03;99762.13;5052551;28;20249;-68
2023/08/31 08:10:36;;;;;;;0.88;0.88;;;;;;;28.10;93.57;99759.31;5033982;28;20199;-68
2023/08/31 08:13:04;;;;;;;1.83;0.73;;;;;;;28.16;92.99;99756.25;5052225;28;20210;-69
2023/08/31 08:15:31;;;;;;;3.03;1.02;;;;;;;28.11;90.05;99758.38;5052126;28;20281;-69
2023/08/31 08:17:58;;;;;;;1.27;0.82;;;;;;;27.97;86.18;99756.50;5052112;28;20195;-69
2023/08/31 08:20:25;;;;;;;1.10;0.88;;;;;;;27.68;86.36;99701.50;5052456;28;20195;-67
2023/08/31 08:22:52;;;;;;;0.60;0.60;;;;;;;27.66;86.61;99738.88;5052035;28;20203;-68
2023/08/31 08:25:20;;;;;;;0.80;0.80;;;;;;;27.81;84.07;99751.28;5052096;28;20288;-69
2023/08/31 08:27:47;;;;;;;2.60;1.25;;;;;;;27.65;83.38;99761.13;5052120;28;20292;-69
2023/08/31 08:30:15;;;;;;;2.72;0.90;;;;;;;27.66;83.66;99762.84;5017454;28;20199;-68
2023/08/31 08:32:42;;;;;;;0.63;0.63;;;;;;;27.54;82.78;99759.09;5052258;28;20199;-69
2023/08/31 08:35:09;;;;;;;4.75;1.33;;;;;;;27.57;83.16;99764.25;5051867;28;20227;-68
2023/08/31 08:37:36;;;;;;;1.73;1.58;;;;;;;27.20;82.14;99769.16;5033496;28;20206;-68
2023/08/31 08:40:03;;;;;;;0.98;0.80;;;;;;;27.22;82.88;99759.28;5051803;28;20199;-68
2023/08/31 08:42:32;;;;;;;0.68;0.63;;;;;;;27.35;83.17;99737.16;5033646;28;20231;-68
2023/08/31 08:44:59;;;;;;;0.70;0.70;;;;;;;27.43;82.61;99758.84;5051738;28;20247;-68
2023/08/31 08:47:28;;;;;;;0.73;0.73;;;;;;;27.66;83.45;99756.66;5051987;28;20200;-68
2023/08/31 08:49:55;;;;;;;1.52;1.15;;;;;;;27.75;83.12;99762.31;5051684;28;20195;-69
2023/08/31 08:52:23;;;;;;;0.65;0.65;;;;;;;27.80;82.93;99756.69;5052005;28;20259;-67
2023/08/31 08:54:51;;;;;;;1.30;0.80;;;;;;;27.90;84.37;99753.34;5051395;28;20659;-68
2023/08/31 08:57:19;;;;;;;1.00;0.70;;;;;;;27.90;83.49;99745.34;5051628;28;20206;-70
2023/08/31 08:59:46;;;;;;;0.63;0.63;;;;;;;27.94;80.44;99735.38;5053184;28;20203;-68
2023/08/31 09:02:13;;;;;;;1.05;0.77;;;;;;;27.73;77.00;99731.34;5054804;28;20204;-70
2023/08/31 09:04:41;;;;;;;0.60;0.60;;;;;;;28.12;78.51;99749.41;5065018;28;20225;-69
2023/08/31 09:07:08;;;;;;;1.05;0.90;;;;;;;28.29;80.27;99751.88;5071338;28;20203;-67
2023/08/31 09:09:50;;;;;;;3.20;0.98;;;;;;;28.56;77.15;99756.31;5069704;28;20205;-68
2023/08/31 09:12:16;;;;;;;2.67;0.82;;;;;;;28.43;77.33;99759.88;5051320;28;20235;-69
2023/08/31 09:14:43;;;;;;;1.27;1.23;;;;;;;28.51;77.95;99749.53;5065193;28;20783;-70
2023/08/31 09:17:10;;;;;;;2.15;0.90;;;;;;;28.46;76.14;99738.34;5059300;28;20199;-68
2023/08/31 09:19:37;;;;;;;1.00;0.80;;;;;;;28.85;74.28;99750.94;5071252;28;20575;-68
2023/08/31 09:22:06;;;;;;;1.00;0.77;;;;;;;28.59;74.02;99749.91;5029729;28;20666;-68
2023/08/31 09:24:42;;;;;;;5.88;1.33;;;;;;;28.63;74.09;99748.78;5063804;28;20213;-68
2023/08/31 09:27:10;;;;;;;1.00;0.73;;;;;;;28.56;74.20;99760.78;5031384;28;20196;-69
2023/08/31 09:29:39;;;;;;;1.75;1.00;;;;;;;28.55;73.77;99751.94;5031454;28;20200;-69
2023/08/31 09:32:06;;;;;;;3.47;1.40;;;;;;;28.49;73.24;99754.13;5031345;28;20200;-69
2023/08/31 09:34:37;;;;;;;2.05;0.82;;;;;;;28.55;71.99;99753.75;5031084;28;20228;-68
2023/08/31 09:37:09;;;;;;;2.55;0.85;;;;;;;28.77;68.01;99748.78;5031352;28;20211;-67
2023/08/31 09:39:40;;;;;;;5.15;1.55;;;;;;;28.93;66.50;99760.13;5034250;28;20275;-67
2023/08/31 09:42:07;;;;;;;1.38;0.88;;;;;;;28.79;66.02;99746.00;5000436;28;20200;-67
2023/08/31 09:44:34;;;;;;;2.97;0.98;;;;;;;28.81;65.16;99758.28;5035412;28;20207;-68
2023/08/31 09:47:03;;;;;;;0.70;0.70;;;;;;;28.84;59.86;99763.44;5035552;28;20199;-70
2023/08/31 09:49:30;;;;;;;3.40;1.17;;;;;;;29.15;59.84;99769.41;5035624;28;20204;-70
2023/08/31 09:52:03;;;;;;;0.80;0.80;;;;;;;28.93;56.33;99719.28;5035352;28;20232;-70
2023/08/31 09:54:35;;;;;;;3.72;1.08;;;;;;;29.32;55.63;99756.69;5035345;28;20679;-70
2023/08/31 09:57:03;;;;;;;4.97;1.45;;;;;;;29.30;56.02;99761.28;5035471;28;20199;-70
2023/08/31 09:59:31;;;;;;;3.92;1.50;;;;;;;29.38;53.49;99755.41;5016984;28;20282;-71
2023/08/31 10:02:00;;;;;;;1.17;0.80;;;;;;;29.34;56.07;99743.22;5052417;28;20211;-71
2023/08/31 10:04:30;;;;;;;3.70;1.02;;;;;;;29.47;58.18;99738.75;5053937;28;20231;-71
2023/08/31 10:06:57;;;;;;;2.50;0.93;;;;;;;29.55;56.53;99741.75;5051310;28;20204;-70
2023/08/31 10:09:25;;;;;;;6.20;1.42;;;;;;;29.29;60.04;99732.84;5053646;28;20210;-71
2023/08/31 10:11:53;;;;;;;0.80;0.80;;;;;;;29.69;60.52;99751.50;5054214;28;20206;-71
2023/08/31 10:14:22;;;;;;;2.33;1.00;;;;;;;29.60;56.18;99745.00;5053908;28;20210;-71
2023/08/31 10:16:52;;;;;;;0.70;0.70;;;;;;;29.58;54.76;99765.59;5054009;28;20199;-72
2023/08/31 10:19:19;;;;;;;2.90;0.90;;;;;;;29.61;54.64;99756.53;5053828;28;20195;-70
2023/08/31 10:21:46;;;;;;;1.85;1.05;;;;;;;29.64;54.65;99750.97;5054036;28;20204;-69
2023/08/31 10:24:12;;;;;;;1.02;0.70;;;;;;;29.64;54.48;99750.97;5035426;28;20222;-70
2023/08/31 10:26:39;;;;;;;1.08;1.08;;;;;;;29.65;54.61;99748.19;5053848;28;20203;-68
2023/08/31 10:29:26;;;;;;;0.50;0.50;;;;;;;29.85;53.07;99761.09;5053887;28;20204;-70
2023/08/31 10:31:53;;;;;;;0.95;0.95;;;;;;;29.72;51.47;99759.31;5052758;28;20231;-67
2023/08/31 10:34:35;;;;;;;6.68;1.35;;;;;;;29.97;52.18;99757.53;5053786;28;20211;-68
2023/08/31 10:37:03;;;;;;;0.63;0.63;;;;;;;30.00;51.33;99754.63;5053783;28;20601;-68
2023/08/31 10:39:38;;;;;;;7.03;1.55;;;;;;;29.76;51.58;99710.03;5053740;28;20191;-67
2023/08/31 10:42:05;;;;;;;0.73;0.63;;;;;;;29.99;51.28;99742.25;5051438;28;20241;-67
2023/08/31 10:44:35;;;;;;;2.40;0.93;;;;;;;30.20;51.07;99755.94;5053470;28;20249;-67
2023/08/31 10:47:04;;;;;;;0.70;0.70;;;;;;;30.16;50.44;99727.69;5053672;28;20253;-67
2023/08/31 10:49:32;;;;;;;3.90;1.73;;;;;;;30.32;50.75;99754.19;5052597;28;20192;-69
2023/08/31 10:52:16;;;;;;;1.65;0.70;;;;;;;30.41;50.04;99742.81;5052776;28;20226;-66
2023/08/31 10:54:43;;;;;;;1.33;1.00;;;;;;;30.30;50.66;99756.97;5050392;28;20657;-67
2023/08/31 10:57:11;;;;;;;1.95;1.00;;;;;;;30.00;51.66;99753.81;5053218;28;20697;-67
2023/08/31 10:59:51;;;;;;;2.22;0.82;;;;;;;30.18;50.64;99754.34;5053399;28;20249;-68
2023/08/31 11:02:32;;;;;;;1.75;0.80;;;;;;;30.39;49.74;99739.41;5053315;28;20202;-67
2023/08/31 11:05:06;;;;;;;1.08;1.08;;;;;;;30.63;50.33;99753.72;5034255;28;20227;-67
2023/08/31 11:07:34;;;;;;;2.65;0.93;;;;;;;30.60;49.87;99743.25;5053364;28;20199;-68
2023/08/31 11:10:13;;;;;;;0.88;0.88;;;;;;;30.87;48.35;99757.28;5052477;28;20229;-70
2023/08/31 11:12:41;;;;;;;0.70;0.70;;;;;;;30.62;47.90;99757.38;5036832;28;20222;-68
2023/08/31 11:15:11;;;;;;;1.17;1.17;;;;;;;30.25;47.77;99742.22;5044641;28;20227;-68
2023/08/31 11:17:40;;;;;;;0.82;0.80;;;;;;;30.40;47.94;99757.16;5040555;28;20206;-67
2023/08/31 11:20:09;;;;;;;0.75;0.75;;;;;;;30.53;48.06;99757.19;5048752;28;20294;-67
2023/08/31 11:22:39;;;;;;;0.65;0.65;;;;;;;30.17;48.71;99755.28;5045878;28;20207;-66
2023/08/31 11:25:06;;;;;;;0.90;0.90;;;;;;;30.26;48.51;99755.47;5047895;28;20702;-67
2023/08/31 11:27:33;;;;;;;0.60;0.60;;;;;;;30.15;47.51;99758.06;5040576;28;20211;-68
2023/08/31 11:30:00;;;;;;;0.60;0.60;;;;;;;30.02;48.29;99758.09;5009183;28;20222;-67
2023/08/31 11:32:28;;;;;;;1.15;0.85;;;;;;;30.23;46.92;99753.03;5047130;28;20572;-68